sensor_id;sensor_type;location;lat;lon;timestamp;pressure;altitude;pressure_sealevel;temperature;humidity
38880;BME280;25887;30.194;-97.880;2023-04-06T00:02:11;98466.69;;;22.85;23.71
38880;BME280;25887;30.194;-97.880;2023-04-06T00:04:37;98459.94;;;22.80;24.00
38880;BME280;25887;30.194;-97.880;2023-04-06T00:07:03;98462.69;;;22.77;24.14
38880;BME280;25887;30.194;-97.880;2023-04-06T00:09:30;98469.84;;;22.74;23.80
38880;BME280;25887;30.194;-97.880;2023-04-06T00:11:56;98470.81;;;22.71;24.35
38880;BME280;25887;30.194;-97.880;2023-04-06T00:14:23;98477.91;;;22.69;24.29
38880;BME280;25887;30.194;-97.880;2023-04-06T00:16:50;98482.47;;;22.66;24.17
38880;BME280;25887;30.194;-97.880;2023-04-06T00:19:16;98474.81;;;22.61;24.45
38880;BME280;25887;30.194;-97.880;2023-04-06T00:21:42;98474.97;;;22.58;24.14
38880;BME280;25887;30.194;-97.880;2023-04-06T00:24:08;98475.09;;;22.55;24.50
38880;BME280;25887;30.194;-97.880;2023-04-06T00:26:34;98482.19;;;22.53;24.22
38880;BME280;25887;30.194;-97.880;2023-04-06T00:29:01;98476.25;;;22.49;24.21
38880;BME280;25887;30.194;-97.880;2023-04-06T00:31:27;98473.69;;;22.48;24.63
38880;BME280;25887;30.194;-97.880;2023-04-06T00:33:53;98473.00;;;22.44;24.30
38880;BME280;25887;30.194;-97.880;2023-04-06T00:36:19;98478.38;;;22.41;24.43
38880;BME280;25887;30.194;-97.880;2023-04-06T00:38:46;98488.13;;;22.38;24.55
38880;BME280;25887;30.194;-97.880;2023-04-06T00:41:12;98486.59;;;22.34;24.41
38880;BME280;25887;30.194;-97.880;2023-04-06T00:43:39;98482.31;;;22.31;24.83
38880;BME280;25887;30.194;-97.880;2023-04-06T00:46:05;98478.94;;;22.29;24.49
38880;BME280;25887;30.194;-97.880;2023-04-06T00:48:31;98484.38;;;22.24;24.84
38880;BME280;25887;30.194;-97.880;2023-04-06T00:50:59;98483.66;;;22.21;24.76
38880;BME280;25887;30.194;-97.880;2023-04-06T00:53:25;98479.44;;;22.18;24.95
38880;BME280;25887;30.194;-97.880;2023-04-06T00:55:51;98478.78;;;22.13;24.71
38880;BME280;25887;30.194;-97.880;2023-04-06T00:58:19;98489.44;;;22.09;24.58
38880;BME280;25887;30.194;-97.880;2023-04-06T01:00:45;98493.16;;;22.03;24.51
38880;BME280;25887;30.194;-97.880;2023-04-06T01:03:12;98496.81;;;21.99;24.65
38880;BME280;25887;30.194;-97.880;2023-04-06T01:05:39;98504.03;;;21.94;24.86
38880;BME280;25887;30.194;-97.880;2023-04-06T01:08:06;98513.72;;;21.92;25.13
38880;BME280;25887;30.194;-97.880;2023-04-06T01:10:52;98511.16;;;21.90;25.08
38880;BME280;25887;30.194;-97.880;2023-04-06T01:13:58;98536.63;;;21.87;25.34
38880;BME280;25887;30.194;-97.880;2023-04-06T01:16:39;98576.09;;;21.81;25.30
38880;BME280;25887;30.194;-97.880;2023-04-06T01:19:09;98588.34;;;21.80;25.30
38880;BME280;25887;30.194;-97.880;2023-04-06T01:21:37;98596.19;;;21.80;25.72
38880;BME280;25887;30.194;-97.880;2023-04-06T01:24:04;98617.16;;;21.79;25.43
38880;BME280;25887;30.194;-97.880;2023-04-06T01:26:35;98625.13;;;21.76;25.45
38880;BME280;25887;30.194;-97.880;2023-04-06T01:29:02;98647.03;;;21.73;25.43
38880;BME280;25887;30.194;-97.880;2023-04-06T01:31:29;98662.84;;;21.70;26.02
38880;BME280;25887;30.194;-97.880;2023-04-06T01:34:12;98691.56;;;21.72;25.69
38880;BME280;25887;30.194;-97.880;2023-04-06T01:36:38;98697.03;;;21.65;25.67
38880;BME280;25887;30.194;-97.880;2023-04-06T01:39:07;98721.50;;;21.64;25.99
38880;BME280;25887;30.194;-97.880;2023-04-06T01:41:34;98733.72;;;21.64;25.82
38880;BME280;25887;30.194;-97.880;2023-04-06T01:44:10;98743.31;;;21.63;25.89
38880;BME280;25887;30.194;-97.880;2023-04-06T01:46:36;98759.91;;;21.62;25.96
38880;BME280;25887;30.194;-97.880;2023-04-06T01:49:03;98757.34;;;21.61;26.09
38880;BME280;25887;30.194;-97.880;2023-04-06T01:51:29;98759.97;;;21.61;25.93
38880;BME280;25887;30.194;-97.880;2023-04-06T01:54:20;98760.88;;;21.60;26.13
38880;BME280;25887;30.194;-97.880;2023-04-06T01:56:46;98761.03;;;21.55;26.37
38880;BME280;25887;30.194;-97.880;2023-04-06T01:59:14;98767.19;;;21.54;26.17
38880;BME280;25887;30.194;-97.880;2023-04-06T02:01:40;98780.31;;;21.53;26.35
38880;BME280;25887;30.194;-97.880;2023-04-06T02:04:07;98766.47;;;21.51;26.43
38880;BME280;25887;30.194;-97.880;2023-04-06T02:06:33;98772.66;;;21.48;26.05
38880;BME280;25887;30.194;-97.880;2023-04-06T02:08:59;98783.22;;;21.45;26.45
38880;BME280;25887;30.194;-97.880;2023-04-06T02:11:25;98772.75;;;21.45;26.30
38880;BME280;25887;30.194;-97.880;2023-04-06T02:13:51;98763.28;;;21.42;26.38
38880;BME280;25887;30.194;-97.880;2023-04-06T02:16:18;98779.94;;;21.40;26.25
38880;BME280;25887;30.194;-97.880;2023-04-06T02:18:44;98776.59;;;21.36;25.94
38880;BME280;25887;30.194;-97.880;2023-04-06T02:21:12;98768.91;;;21.32;26.24
38880;BME280;25887;30.194;-97.880;2023-04-06T02:23:38;98743.81;;;21.28;25.90
38880;BME280;25887;30.194;-97.880;2023-04-06T02:26:05;98720.41;;;21.23;26.10
38880;BME280;25887;30.194;-97.880;2023-04-06T02:28:31;98715.25;;;21.22;26.21
38880;BME280;25887;30.194;-97.880;2023-04-06T02:30:57;98738.91;;;21.19;26.23
38880;BME280;25887;30.194;-97.880;2023-04-06T02:33:24;98734.69;;;21.14;25.98
38880;BME280;25887;30.194;-97.880;2023-04-06T02:35:50;98740.94;;;21.10;25.91
38880;BME280;25887;30.194;-97.880;2023-04-06T02:38:16;98765.41;;;21.08;25.81
38880;BME280;25887;30.194;-97.880;2023-04-06T02:40:54;98785.44;;;21.07;25.87
38880;BME280;25887;30.194;-97.880;2023-04-06T02:47:18;98775.19;;;21.03;26.03
38880;BME280;25887;30.194;-97.880;2023-04-06T02:50:11;98768.41;;;20.97;26.34
38880;BME280;25887;30.194;-97.880;2023-04-06T02:53:00;98778.84;;;20.97;26.31
38880;BME280;25887;30.194;-97.880;2023-04-06T03:05:54;98809.75;;;20.86;26.20
38880;BME280;25887;30.194;-97.880;2023-04-06T03:26:18;98751.22;;;20.67;26.57
38880;BME280;25887;30.194;-97.880;2023-04-06T03:28:45;98762.72;;;20.61;26.45
38880;BME280;25887;30.194;-97.880;2023-04-06T03:37:54;98738.59;;;20.54;26.79
38880;BME280;25887;30.194;-97.880;2023-04-06T03:40:21;98717.75;;;20.53;26.74
38880;BME280;25887;30.194;-97.880;2023-04-06T03:42:47;98706.56;;;20.49;26.88
38880;BME280;25887;30.194;-97.880;2023-04-06T03:45:13;98695.34;;;20.47;26.66
38880;BME280;25887;30.194;-97.880;2023-04-06T03:47:39;98708.47;;;20.44;26.64
38880;BME280;25887;30.194;-97.880;2023-04-06T03:50:06;98720.72;;;20.42;26.76
38880;BME280;25887;30.194;-97.880;2023-04-06T03:52:32;98703.41;;;20.40;26.76
38880;BME280;25887;30.194;-97.880;2023-04-06T03:54:58;98696.50;;;20.37;26.80
38880;BME280;25887;30.194;-97.880;2023-04-06T04:00:47;98721.03;;;20.33;26.93
38880;BME280;25887;30.194;-97.880;2023-04-06T04:03:13;98723.72;;;20.30;27.01
38880;BME280;25887;30.194;-97.880;2023-04-06T04:09:06;98701.34;;;20.23;27.09
38880;BME280;25887;30.194;-97.880;2023-04-06T04:11:32;98728.53;;;20.17;27.18
38880;BME280;25887;30.194;-97.880;2023-04-06T04:13:58;98747.69;;;20.16;27.27
38880;BME280;25887;30.194;-97.880;2023-04-06T04:16:24;98752.06;;;20.14;27.26
38880;BME280;25887;30.194;-97.880;2023-04-06T04:18:52;98767.00;;;20.11;27.40
38880;BME280;25887;30.194;-97.880;2023-04-06T04:21:19;98780.94;;;20.10;27.56
38880;BME280;25887;30.194;-97.880;2023-04-06T04:23:45;98777.63;;;20.04;27.62
38880;BME280;25887;30.194;-97.880;2023-04-06T04:26:12;98776.03;;;19.99;27.60
38880;BME280;25887;30.194;-97.880;2023-04-06T04:28:38;98786.63;;;19.94;27.79
38880;BME280;25887;30.194;-97.880;2023-04-06T04:31:04;98790.22;;;19.90;28.05
38880;BME280;25887;30.194;-97.880;2023-04-06T04:33:30;98807.69;;;19.88;28.02
38880;BME280;25887;30.194;-97.880;2023-04-06T04:35:56;98836.50;;;19.84;28.14
38880;BME280;25887;30.194;-97.880;2023-04-06T04:38:23;98867.78;;;19.84;28.15
38880;BME280;25887;30.194;-97.880;2023-04-06T04:40:49;98910.34;;;19.84;28.44
38880;BME280;25887;30.194;-97.880;2023-04-06T04:43:15;98935.59;;;19.84;28.54
38880;BME280;25887;30.194;-97.880;2023-04-06T04:45:41;98931.22;;;19.84;28.43
38880;BME280;25887;30.194;-97.880;2023-04-06T04:48:07;98885.19;;;19.83;28.47
38880;BME280;25887;30.194;-97.880;2023-04-06T04:50:34;98821.81;;;19.81;28.39
38880;BME280;25887;30.194;-97.880;2023-04-06T04:53:00;98796.69;;;19.79;28.56
38880;BME280;25887;30.194;-97.880;2023-04-06T04:55:27;98800.28;;;19.74;28.58
38880;BME280;25887;30.194;-97.880;2023-04-06T04:57:54;98828.16;;;19.72;28.48
38880;BME280;25887;30.194;-97.880;2023-04-06T05:00:21;98849.97;;;19.70;28.69
38880;BME280;25887;30.194;-97.880;2023-04-06T05:02:47;98864.78;;;19.68;28.93
38880;BME280;25887;30.194;-97.880;2023-04-06T05:05:13;98874.34;;;19.67;28.90
38880;BME280;25887;30.194;-97.880;2023-04-06T05:07:40;98901.31;;;19.66;28.82
38880;BME280;25887;30.194;-97.880;2023-04-06T05:10:06;98901.28;;;19.68;28.97
38880;BME280;25887;30.194;-97.880;2023-04-06T05:12:32;98903.03;;;19.67;29.02
38880;BME280;25887;30.194;-97.880;2023-04-06T05:14:59;98894.31;;;19.68;28.94
38880;BME280;25887;30.194;-97.880;2023-04-06T05:17:25;98893.56;;;19.65;29.03
38880;BME280;25887;30.194;-97.880;2023-04-06T05:19:52;98904.03;;;19.63;28.83
38880;BME280;25887;30.194;-97.880;2023-04-06T05:22:18;98909.34;;;19.59;28.86
38880;BME280;25887;30.194;-97.880;2023-04-06T05:24:44;98917.25;;;19.56;28.89
38880;BME280;25887;30.194;-97.880;2023-04-06T05:27:10;98926.03;;;19.52;29.04
38880;BME280;25887;30.194;-97.880;2023-04-06T05:29:37;98928.72;;;19.48;28.89
38880;BME280;25887;30.194;-97.880;2023-04-06T05:32:03;98920.09;;;19.46;28.94
38880;BME280;25887;30.194;-97.880;2023-04-06T05:34:30;98924.47;;;19.46;29.12
38880;BME280;25887;30.194;-97.880;2023-04-06T05:36:58;98953.13;;;19.46;29.14
38880;BME280;25887;30.194;-97.880;2023-04-06T05:39:24;98966.97;;;19.48;29.16
38880;BME280;25887;30.194;-97.880;2023-04-06T05:41:50;98971.28;;;19.49;29.14
38880;BME280;25887;30.194;-97.880;2023-04-06T05:44:16;98980.91;;;19.47;29.08
38880;BME280;25887;30.194;-97.880;2023-04-06T05:46:42;98980.06;;;19.45;29.13
38880;BME280;25887;30.194;-97.880;2023-04-06T05:49:10;98964.41;;;19.45;29.20
38880;BME280;25887;30.194;-97.880;2023-04-06T05:51:37;98942.66;;;19.47;28.95
38880;BME280;25887;30.194;-97.880;2023-04-06T05:54:03;98907.06;;;19.46;29.19
38880;BME280;25887;30.194;-97.880;2023-04-06T05:56:29;98853.25;;;19.44;29.01
38880;BME280;25887;30.194;-97.880;2023-04-06T05:58:57;98836.03;;;19.40;28.99
38880;BME280;25887;30.194;-97.880;2023-04-06T06:01:23;98856.94;;;19.37;28.85
38880;BME280;25887;30.194;-97.880;2023-04-06T06:03:49;98859.69;;;19.32;29.09
38880;BME280;25887;30.194;-97.880;2023-04-06T06:06:16;98865.81;;;19.30;28.96
38880;BME280;25887;30.194;-97.880;2023-04-06T06:08:42;98843.31;;;19.27;29.22
38880;BME280;25887;30.194;-97.880;2023-04-06T06:11:08;98821.69;;;19.25;29.10
38880;BME280;25887;30.194;-97.880;2023-04-06T06:13:35;98809.63;;;19.21;29.09
38880;BME280;25887;30.194;-97.880;2023-04-06T06:16:01;98823.66;;;19.17;28.97
38880;BME280;25887;30.194;-97.880;2023-04-06T06:18:31;98812.44;;;19.13;28.85
38880;BME280;25887;30.194;-97.880;2023-04-06T06:20:58;98809.09;;;19.10;29.21
38880;BME280;25887;30.194;-97.880;2023-04-06T06:23:24;98826.50;;;19.08;29.19
38880;BME280;25887;30.194;-97.880;2023-04-06T06:25:50;98833.47;;;19.06;29.13
38880;BME280;25887;30.194;-97.880;2023-04-06T06:28:17;98850.06;;;19.03;29.25
38880;BME280;25887;30.194;-97.880;2023-04-06T06:30:43;98871.84;;;19.01;29.35
38880;BME280;25887;30.194;-97.880;2023-04-06T06:33:09;98880.53;;;19.00;29.27
38880;BME280;25887;30.194;-97.880;2023-04-06T06:35:35;98866.69;;;18.98;29.30
38880;BME280;25887;30.194;-97.880;2023-04-06T06:38:02;98845.94;;;18.95;29.24
38880;BME280;25887;30.194;-97.880;2023-04-06T06:40:28;98849.44;;;18.93;29.44
38880;BME280;25887;30.194;-97.880;2023-04-06T06:42:54;98865.13;;;18.92;29.14
38880;BME280;25887;30.194;-97.880;2023-04-06T06:45:20;98875.53;;;18.92;29.40
38880;BME280;25887;30.194;-97.880;2023-04-06T06:47:47;98909.44;;;18.89;29.47
38880;BME280;25887;30.194;-97.880;2023-04-06T06:50:13;98935.53;;;18.87;29.59
38880;BME280;25887;30.194;-97.880;2023-04-06T06:52:40;98931.16;;;18.88;29.26
38880;BME280;25887;30.194;-97.880;2023-04-06T06:55:07;98952.00;;;18.88;29.24
38880;BME280;25887;30.194;-97.880;2023-04-06T06:57:34;98949.38;;;18.88;29.76
38880;BME280;25887;30.194;-97.880;2023-04-06T07:00:01;98904.22;;;18.89;29.67
38880;BME280;25887;30.194;-97.880;2023-04-06T07:02:27;98830.44;;;18.90;29.72
38880;BME280;25887;30.194;-97.880;2023-04-06T07:04:53;98784.50;;;18.87;29.80
38880;BME280;25887;30.194;-97.880;2023-04-06T07:07:21;98753.53;;;18.78;30.26
38880;BME280;25887;30.194;-97.880;2023-04-06T07:13:16;98754.22;;;18.51;31.13
38880;BME280;25887;30.194;-97.880;2023-04-06T07:15:47;98754.56;;;18.38;31.29
38880;BME280;25887;30.194;-97.880;2023-04-06T07:18:13;98765.16;;;18.31;31.38
38880;BME280;25887;30.194;-97.880;2023-04-06T07:20:40;98784.44;;;18.22;31.62
38880;BME280;25887;30.194;-97.880;2023-04-06T07:23:06;98781.94;;;18.18;31.80
38880;BME280;25887;30.194;-97.880;2023-04-06T07:25:33;98783.78;;;18.13;31.69
38880;BME280;25887;30.194;-97.880;2023-04-06T07:27:59;98792.56;;;18.08;31.99
38880;BME280;25887;30.194;-97.880;2023-04-06T07:30:25;98784.91;;;18.02;32.43
38880;BME280;25887;30.194;-97.880;2023-04-06T07:32:55;98728.88;;;17.89;32.54
38880;BME280;25887;30.194;-97.880;2023-04-06T07:35:25;98710.97;;;17.78;33.23
38880;BME280;25887;30.194;-97.880;2023-04-06T07:37:54;98706.91;;;17.65;33.89
38880;BME280;25887;30.194;-97.880;2023-04-06T07:40:21;98673.47;;;17.51;34.43
38880;BME280;25887;30.194;-97.880;2023-04-06T07:42:48;98627.06;;;17.35;34.86
38880;BME280;25887;30.194;-97.880;2023-04-06T07:45:14;98658.59;;;17.19;35.16
38880;BME280;25887;30.194;-97.880;2023-04-06T07:47:41;98741.09;;;17.07;35.35
38880;BME280;25887;30.194;-97.880;2023-04-06T07:50:08;98807.84;;;17.00;35.25
38880;BME280;25887;30.194;-97.880;2023-04-06T07:53:02;98828.59;;;17.00;35.53
38880;BME280;25887;30.194;-97.880;2023-04-06T07:55:28;98811.50;;;16.90;35.51
38880;BME280;25887;30.194;-97.880;2023-04-06T07:57:54;98808.13;;;16.85;35.98
38880;BME280;25887;30.194;-97.880;2023-04-06T08:00:21;98808.22;;;16.79;35.97
38880;BME280;25887;30.194;-97.880;2023-04-06T08:02:47;98801.44;;;16.71;36.33
38880;BME280;25887;30.194;-97.880;2023-04-06T08:05:13;98804.97;;;16.69;36.54
38880;BME280;25887;30.194;-97.880;2023-04-06T08:07:40;98827.47;;;16.65;36.75
38880;BME280;25887;30.194;-97.880;2023-04-06T08:10:07;98913.94;;;16.64;36.86
38880;BME280;25887;30.194;-97.880;2023-04-06T08:12:34;98927.78;;;16.66;37.08
38880;BME280;25887;30.194;-97.880;2023-04-06T08:15:01;98859.47;;;16.64;37.51
38880;BME280;25887;30.194;-97.880;2023-04-06T08:17:28;98813.81;;;16.54;38.15
38880;BME280;25887;30.194;-97.880;2023-04-06T08:19:55;98769.94;;;16.43;38.21
38880;BME280;25887;30.194;-97.880;2023-04-06T08:22:22;98739.88;;;16.32;38.51
38880;BME280;25887;30.194;-97.880;2023-04-06T08:25:05;98715.81;;;16.24;38.57
38880;BME280;25887;30.194;-97.880;2023-04-06T08:27:31;98716.00;;;16.13;38.84
38880;BME280;25887;30.194;-97.880;2023-04-06T08:29:57;98731.63;;;16.08;39.00
38880;BME280;25887;30.194;-97.880;2023-04-06T08:32:25;98727.38;;;16.04;39.35
38880;BME280;25887;30.194;-97.880;2023-04-06T08:34:53;98690.31;;;15.99;39.54
38880;BME280;25887;30.194;-97.880;2023-04-06T08:37:39;98661.09;;;15.91;39.71
38880;BME280;25887;30.194;-97.880;2023-04-06T08:40:07;98731.97;;;15.88;39.75
38880;BME280;25887;30.194;-97.880;2023-04-06T08:42:33;98769.97;;;15.88;39.69
38880;BME280;25887;30.194;-97.880;2023-04-06T08:45:05;98738.88;;;15.88;40.06
38880;BME280;25887;30.194;-97.880;2023-04-06T08:47:32;98728.53;;;15.85;39.90
38880;BME280;25887;30.194;-97.880;2023-04-06T08:49:58;98738.09;;;15.83;40.28
38880;BME280;25887;30.194;-97.880;2023-04-06T08:52:30;98748.47;;;15.81;40.34
38880;BME280;25887;30.194;-97.880;2023-04-06T08:55:06;98757.09;;;15.82;40.43
38880;BME280;25887;30.194;-97.880;2023-04-06T08:57:35;98777.81;;;15.83;40.35
38880;BME280;25887;30.194;-97.880;2023-04-06T09:00:02;98793.31;;;15.85;40.42
38880;BME280;25887;30.194;-97.880;2023-04-06T09:02:28;98806.28;;;15.85;40.58
38880;BME280;25887;30.194;-97.880;2023-04-06T09:04:55;98819.22;;;15.85;40.83
38880;BME280;25887;30.194;-97.880;2023-04-06T09:07:21;98837.38;;;15.85;40.71
38880;BME280;25887;30.194;-97.880;2023-04-06T09:09:47;98865.81;;;15.90;40.98
38880;BME280;25887;30.194;-97.880;2023-04-06T09:12:38;98847.59;;;15.94;40.80
38880;BME280;25887;30.194;-97.880;2023-04-06T09:15:05;98828.69;;;15.89;41.00
38880;BME280;25887;30.194;-97.880;2023-04-06T09:17:32;98807.97;;;15.86;41.20
38880;BME280;25887;30.194;-97.880;2023-04-06T09:20:03;98791.56;;;15.87;41.36
38880;BME280;25887;30.194;-97.880;2023-04-06T09:22:42;98775.22;;;15.83;41.50
38880;BME280;25887;30.194;-97.880;2023-04-06T09:25:09;98772.75;;;15.74;41.82
38880;BME280;25887;30.194;-97.880;2023-04-06T09:27:37;98794.41;;;15.69;41.98
38880;BME280;25887;30.194;-97.880;2023-04-06T09:30:08;98825.53;;;15.67;41.95
38880;BME280;25887;30.194;-97.880;2023-04-06T09:32:46;98824.66;;;15.68;41.78
38880;BME280;25887;30.194;-97.880;2023-04-06T09:35:13;98820.34;;;15.67;42.30
38880;BME280;25887;30.194;-97.880;2023-04-06T09:37:43;98804.81;;;15.67;42.37
38880;BME280;25887;30.194;-97.880;2023-04-06T09:40:10;98778.91;;;15.67;42.13
38880;BME280;25887;30.194;-97.880;2023-04-06T09:42:51;98769.34;;;15.72;42.22
38880;BME280;25887;30.194;-97.880;2023-04-06T09:45:19;98789.25;;;15.69;42.47
38880;BME280;25887;30.194;-97.880;2023-04-06T09:47:48;98813.44;;;15.68;42.66
38880;BME280;25887;30.194;-97.880;2023-04-06T09:50:17;98834.19;;;15.66;42.43
38880;BME280;25887;30.194;-97.880;2023-04-06T09:52:50;98843.66;;;15.67;42.51
38880;BME280;25887;30.194;-97.880;2023-04-06T09:55:40;98842.72;;;15.71;42.48
38880;BME280;25887;30.194;-97.880;2023-04-06T09:58:13;98852.28;;;15.68;42.84
38880;BME280;25887;30.194;-97.880;2023-04-06T10:04:48;98831.56;;;15.68;42.51
38880;BME280;25887;30.194;-97.880;2023-04-06T10:10:38;98808.50;;;15.46;42.82
38880;BME280;25887;30.194;-97.880;2023-04-06T10:13:04;98824.94;;;15.41;43.04
38880;BME280;25887;30.194;-97.880;2023-04-06T10:15:31;98821.53;;;15.39;43.15
38880;BME280;25887;30.194;-97.880;2023-04-06T10:17:58;98772.41;;;15.34;42.93
38880;BME280;25887;30.194;-97.880;2023-04-06T10:20:47;98745.69;;;15.32;43.14
38880;BME280;25887;30.194;-97.880;2023-04-06T10:26:22;98711.28;;;15.24;43.38
38880;BME280;25887;30.194;-97.880;2023-04-06T10:28:49;98652.72;;;15.15;43.99
38880;BME280;25887;30.194;-97.880;2023-04-06T10:31:24;98600.19;;;15.09;44.08
38880;BME280;25887;30.194;-97.880;2023-04-06T10:33:55;98567.59;;;14.98;44.13
38880;BME280;25887;30.194;-97.880;2023-04-06T10:36:24;98590.19;;;14.87;44.70
38880;BME280;25887;30.194;-97.880;2023-04-06T10:39:00;98685.97;;;14.78;44.74
38880;BME280;25887;30.194;-97.880;2023-04-06T10:41:43;98731.75;;;14.73;44.81
38880;BME280;25887;30.194;-97.880;2023-04-06T10:44:21;98722.34;;;14.63;44.80
38880;BME280;25887;30.194;-97.880;2023-04-06T10:46:59;98696.59;;;14.55;45.33
38880;BME280;25887;30.194;-97.880;2023-04-06T10:49:28;98653.66;;;14.40;45.71
38880;BME280;25887;30.194;-97.880;2023-04-06T10:51:55;98692.47;;;14.34;45.89
38880;BME280;25887;30.194;-97.880;2023-04-06T10:54:24;98726.16;;;14.27;46.03
38880;BME280;25887;30.194;-97.880;2023-04-06T11:04:09;98773.69;;;14.09;45.72
38880;BME280;25887;30.194;-97.880;2023-04-06T11:13:23;98814.25;;;13.94;46.28
38880;BME280;25887;30.194;-97.880;2023-04-06T11:15:49;98834.03;;;13.99;46.10
38880;BME280;25887;30.194;-97.880;2023-04-06T11:18:17;98859.84;;;13.99;46.22
38880;BME280;25887;30.194;-97.880;2023-04-06T11:20:48;98902.88;;;14.06;46.18
38880;BME280;25887;30.194;-97.880;2023-04-06T11:23:25;98919.19;;;14.12;45.87
38880;BME280;25887;30.194;-97.880;2023-04-06T11:25:54;98921.78;;;14.14;45.97
38880;BME280;25887;30.194;-97.880;2023-04-06T11:28:20;98914.88;;;14.17;46.26
38880;BME280;25887;30.194;-97.880;2023-04-06T11:30:48;98903.63;;;14.23;46.31
38880;BME280;25887;30.194;-97.880;2023-04-06T11:33:23;98892.38;;;14.30;45.95
38880;BME280;25887;30.194;-97.880;2023-04-06T11:35:50;98894.09;;;14.34;45.99
38880;BME280;25887;30.194;-97.880;2023-04-06T11:38:18;98895.75;;;14.38;46.42
38880;BME280;25887;30.194;-97.880;2023-04-06T11:40:45;98890.63;;;14.40;46.27
38880;BME280;25887;30.194;-97.880;2023-04-06T11:43:11;98895.75;;;14.41;46.43
38880;BME280;25887;30.194;-97.880;2023-04-06T11:45:43;98881.94;;;14.44;46.23
38880;BME280;25887;30.194;-97.880;2023-04-06T11:48:19;98861.28;;;14.45;46.33
38880;BME280;25887;30.194;-97.880;2023-04-06T11:50:47;98882.84;;;14.41;46.52
38880;BME280;25887;30.194;-97.880;2023-04-06T11:53:14;98909.56;;;14.40;46.32
38880;BME280;25887;30.194;-97.880;2023-04-06T11:55:40;98921.63;;;14.41;46.34
38880;BME280;25887;30.194;-97.880;2023-04-06T11:58:06;98921.59;;;14.44;46.37
38880;BME280;25887;30.194;-97.880;2023-04-06T12:00:33;98925.91;;;14.42;46.46
38880;BME280;25887;30.194;-97.880;2023-04-06T12:03:00;98935.41;;;14.40;46.83
38880;BME280;25887;30.194;-97.880;2023-04-06T12:05:27;98936.28;;;14.36;47.12
38880;BME280;25887;30.194;-97.880;2023-04-06T12:07:53;98956.13;;;14.31;47.06
38880;BME280;25887;30.194;-97.880;2023-04-06T12:10:19;98954.44;;;14.27;47.04
38880;BME280;25887;30.194;-97.880;2023-04-06T12:12:45;98942.41;;;14.25;47.14
38880;BME280;25887;30.194;-97.880;2023-04-06T12:15:12;98930.38;;;14.19;47.16
38880;BME280;25887;30.194;-97.880;2023-04-06T12:17:38;98923.50;;;14.13;47.37
38880;BME280;25887;30.194;-97.880;2023-04-06T12:20:04;98914.06;;;14.06;47.79
38880;BME280;25887;30.194;-97.880;2023-04-06T12:22:31;98947.66;;;14.00;47.70
38880;BME280;25887;30.194;-97.880;2023-04-06T12:24:57;98972.69;;;13.93;47.85
38880;BME280;25887;30.194;-97.880;2023-04-06T12:27:23;98967.53;;;13.90;48.22
38880;BME280;25887;30.194;-97.880;2023-04-06T12:29:50;98945.16;;;13.85;48.04
38880;BME280;25887;30.194;-97.880;2023-04-06T12:32:16;98917.66;;;13.79;48.10
38880;BME280;25887;30.194;-97.880;2023-04-06T12:34:43;98878.97;;;13.70;48.83
38880;BME280;25887;30.194;-97.880;2023-04-06T12:37:09;98894.47;;;13.61;48.89
38880;BME280;25887;30.194;-97.880;2023-04-06T12:39:35;98972.78;;;13.54;48.67
38880;BME280;25887;30.194;-97.880;2023-04-06T12:42:01;99012.41;;;13.51;48.97
38880;BME280;25887;30.194;-97.880;2023-04-06T12:44:29;98995.19;;;13.50;48.52
38880;BME280;25887;30.194;-97.880;2023-04-06T12:46:55;98972.81;;;13.49;49.05
38880;BME280;25887;30.194;-97.880;2023-04-06T12:49:21;98978.88;;;13.47;48.99
38880;BME280;25887;30.194;-97.880;2023-04-06T12:51:48;98987.44;;;13.46;48.74
38880;BME280;25887;30.194;-97.880;2023-04-06T12:54:14;98978.88;;;13.47;48.81
38880;BME280;25887;30.194;-97.880;2023-04-06T12:56:42;98955.63;;;13.45;48.93
38880;BME280;25887;30.194;-97.880;2023-04-06T12:59:08;98949.59;;;13.46;49.44
38880;BME280;25887;30.194;-97.880;2023-04-06T13:01:34;98947.00;;;13.45;49.46
38880;BME280;25887;30.194;-97.880;2023-04-06T13:04:01;98917.78;;;13.41;49.71
38880;BME280;25887;30.194;-97.880;2023-04-06T13:06:27;98910.03;;;13.41;49.52
38880;BME280;25887;30.194;-97.880;2023-04-06T13:08:55;98907.47;;;13.36;49.65
38880;BME280;25887;30.194;-97.880;2023-04-06T13:11:21;98911.78;;;13.31;49.78
38880;BME280;25887;30.194;-97.880;2023-04-06T13:13:49;98931.59;;;13.31;49.69
38880;BME280;25887;30.194;-97.880;2023-04-06T13:16:15;98972.00;;;13.27;50.00
38880;BME280;25887;30.194;-97.880;2023-04-06T13:18:43;98990.06;;;13.27;50.10
38880;BME280;25887;30.194;-97.880;2023-04-06T13:21:14;98992.63;;;13.29;50.07
38880;BME280;25887;30.194;-97.880;2023-04-06T13:23:41;99017.56;;;13.30;49.45
38880;BME280;25887;30.194;-97.880;2023-04-06T13:26:08;99069.22;;;13.31;49.84
38880;BME280;25887;30.194;-97.880;2023-04-06T13:28:35;99100.16;;;13.34;49.51
38880;BME280;25887;30.194;-97.880;2023-04-06T13:31:06;99134.59;;;13.40;49.63
38880;BME280;25887;30.194;-97.880;2023-04-06T13:33:33;99168.13;;;13.46;49.70
38880;BME280;25887;30.194;-97.880;2023-04-06T13:35:59;99181.91;;;13.49;50.12
38880;BME280;25887;30.194;-97.880;2023-04-06T13:38:27;99144.91;;;13.52;49.62
38880;BME280;25887;30.194;-97.880;2023-04-06T13:40:54;99082.09;;;13.50;49.87
38880;BME280;25887;30.194;-97.880;2023-04-06T13:43:22;99021.88;;;13.42;50.59
38880;BME280;25887;30.194;-97.880;2023-04-06T13:45:53;98988.34;;;13.32;50.50
38880;BME280;25887;30.194;-97.880;2023-04-06T13:48:20;99001.25;;;13.23;50.60
38880;BME280;25887;30.194;-97.880;2023-04-06T13:50:47;99033.91;;;13.15;50.79
38880;BME280;25887;30.194;-97.880;2023-04-06T13:53:13;99013.28;;;13.09;50.87
38880;BME280;25887;30.194;-97.880;2023-04-06T13:55:41;98970.28;;;13.02;51.07
38880;BME280;25887;30.194;-97.880;2023-04-06T13:58:08;98954.81;;;12.93;51.18
38880;BME280;25887;30.194;-97.880;2023-04-06T14:00:34;98977.16;;;12.88;51.35